sensor_id;sensor_type;location;lat;lon;timestamp;pressure;altitude;pressure_sealevel;temperature;humidity
60974;BME280;46846;51.528;5.076;2023-07-13T00:02:06;100872.72;;;20.61;42.02
60974;BME280;46846;51.528;5.076;2023-07-13T00:04:32;100873.81;;;20.59;42.24
60974;BME280;46846;51.528;5.076;2023-07-13T00:06:57;100869.38;;;20.58;42.18
60974;BME280;46846;51.528;5.076;2023-07-13T00:09:23;100872.34;;;20.55;42.24
60974;BME280;46846;51.528;5.076;2023-07-13T00:11:55;100877.84;;;20.53;42.14
60974;BME280;46846;51.528;5.076;2023-07-13T00:14:22;100869.97;;;20.50;42.26
60974;BME280;46846;51.528;5.076;2023-07-13T00:16:48;100874.41;;;20.51;42.43
60974;BME280;46846;51.528;5.076;2023-07-13T00:19:14;100875.50;;;20.48;42.64
60974;BME280;46846;51.528;5.076;2023-07-13T00:21:40;100875.63;;;20.47;42.27
60974;BME280;46846;51.528;5.076;2023-07-13T00:24:13;100877.69;;;20.43;42.34
60974;BME280;46846;51.528;5.076;2023-07-13T00:26:40;100886.78;;;20.42;42.56
60974;BME280;46846;51.528;5.076;2023-07-13T00:29:06;100887.88;;;20.40;42.64
60974;BME280;46846;51.528;5.076;2023-07-13T00:31:33;100881.72;;;20.38;42.44
60974;BME280;46846;51.528;5.076;2023-07-13T00:33:59;100878.03;;;20.39;42.63
60974;BME280;46846;51.528;5.076;2023-07-13T00:36:25;100880.00;;;20.37;42.40
60974;BME280;46846;51.528;5.076;2023-07-13T00:38:51;100882.06;;;20.33;42.69
60974;BME280;46846;51.528;5.076;2023-07-13T00:41:18;100879.59;;;20.30;42.79
60974;BME280;46846;51.528;5.076;2023-07-13T00:43:43;100878.84;;;20.28;42.56
60974;BME280;46846;51.528;5.076;2023-07-13T00:46:17;100870.97;;;20.25;42.65
60974;BME280;46846;51.528;5.076;2023-07-13T00:48:45;100873.78;;;20.23;42.71
60974;BME280;46846;51.528;5.076;2023-07-13T00:51:12;100875.72;;;20.21;42.89
60974;BME280;46846;51.528;5.076;2023-07-13T00:53:39;100884.81;;;20.20;42.92
60974;BME280;46846;51.528;5.076;2023-07-13T00:56:04;100881.38;;;20.18;42.67
60974;BME280;46846;51.528;5.076;2023-07-13T00:58:30;100882.25;;;20.18;43.03
60974;BME280;46846;51.528;5.076;2023-07-13T01:00:56;100882.34;;;20.17;42.80
60974;BME280;46846;51.528;5.076;2023-07-13T01:03:21;100876.22;;;20.15;42.91
60974;BME280;46846;51.528;5.076;2023-07-13T01:05:49;100881.72;;;20.13;42.76
60974;BME280;46846;51.528;5.076;2023-07-13T01:08:15;100885.50;;;20.11;43.01
60974;BME280;46846;51.528;5.076;2023-07-13T01:10:42;100888.31;;;20.09;42.97
60974;BME280;46846;51.528;5.076;2023-07-13T01:13:15;100879.72;;;20.04;42.97
60974;BME280;46846;51.528;5.076;2023-07-13T01:15:46;100889.53;;;20.05;42.98
60974;BME280;46846;51.528;5.076;2023-07-13T01:18:21;100894.19;;;20.03;42.91
60974;BME280;46846;51.528;5.076;2023-07-13T01:21:01;100892.44;;;20.02;43.27
60974;BME280;46846;51.528;5.076;2023-07-13T01:23:28;100894.66;;;19.97;43.19
60974;BME280;46846;51.528;5.076;2023-07-13T01:25:55;100892.03;;;19.95;43.24
60974;BME280;46846;51.528;5.076;2023-07-13T01:28:21;100904.00;;;19.91;43.24
60974;BME280;46846;51.528;5.076;2023-07-13T01:30:47;100904.97;;;19.90;43.33
60974;BME280;46846;51.528;5.076;2023-07-13T01:33:15;100905.97;;;19.89;43.17
60974;BME280;46846;51.528;5.076;2023-07-13T01:35:42;100907.91;;;19.87;43.29
60974;BME280;46846;51.528;5.076;2023-07-13T01:38:08;100900.06;;;19.84;43.45
60974;BME280;46846;51.528;5.076;2023-07-13T01:40:35;100905.47;;;19.84;43.37
60974;BME280;46846;51.528;5.076;2023-07-13T01:43:01;100907.38;;;19.81;43.35
60974;BME280;46846;51.528;5.076;2023-07-13T01:45:26;100906.53;;;19.81;43.49
60974;BME280;46846;51.528;5.076;2023-07-13T01:47:51;100913.03;;;19.78;43.39
60974;BME280;46846;51.528;5.076;2023-07-13T01:50:17;100905.25;;;19.74;43.13
60974;BME280;46846;51.528;5.076;2023-07-13T01:52:42;100907.97;;;19.74;43.60
60974;BME280;46846;51.528;5.076;2023-07-13T01:55:08;100917.97;;;19.72;43.61
60974;BME280;46846;51.528;5.076;2023-07-13T01:57:34;100917.97;;;19.72;43.48
60974;BME280;46846;51.528;5.076;2023-07-13T02:00:01;100921.00;;;19.67;43.42
60974;BME280;46846;51.528;5.076;2023-07-13T02:02:26;100914.00;;;19.64;43.60
60974;BME280;46846;51.528;5.076;2023-07-13T02:04:51;100912.28;;;19.63;43.62
60974;BME280;46846;51.528;5.076;2023-07-13T02:07:17;100915.22;;;19.60;43.75
60974;BME280;46846;51.528;5.076;2023-07-13T02:09:42;100917.03;;;19.60;43.76
60974;BME280;46846;51.528;5.076;2023-07-13T02:12:08;100924.16;;;19.61;43.97
60974;BME280;46846;51.528;5.076;2023-07-13T02:14:34;100918.88;;;19.59;43.92
60974;BME280;46846;51.528;5.076;2023-07-13T02:17:00;100919.97;;;19.57;43.81
60974;BME280;46846;51.528;5.076;2023-07-13T02:19:25;100915.53;;;19.56;43.83
60974;BME280;46846;51.528;5.076;2023-07-13T02:21:51;100922.84;;;19.53;43.72
60974;BME280;46846;51.528;5.076;2023-07-13T02:24:16;100921.13;;;19.52;44.09
60974;BME280;46846;51.528;5.076;2023-07-13T02:26:44;100918.56;;;19.51;43.92
60974;BME280;46846;51.528;5.076;2023-07-13T02:29:10;100915.31;;;19.46;43.95
60974;BME280;46846;51.528;5.076;2023-07-13T02:31:35;100915.31;;;19.46;43.98
60974;BME280;46846;51.528;5.076;2023-07-13T02:34:01;100918.25;;;19.43;43.99
60974;BME280;46846;51.528;5.076;2023-07-13T02:36:28;100918.25;;;19.43;44.23
60974;BME280;46846;51.528;5.076;2023-07-13T02:38:53;100913.06;;;19.39;44.00
60974;BME280;46846;51.528;5.076;2023-07-13T02:41:18;100911.34;;;19.38;43.92
60974;BME280;46846;51.528;5.076;2023-07-13T02:43:44;100904.41;;;19.34;44.13
60974;BME280;46846;51.528;5.076;2023-07-13T02:46:09;100906.16;;;19.35;44.23
60974;BME280;46846;51.528;5.076;2023-07-13T02:48:37;100911.75;;;19.32;44.12
60974;BME280;46846;51.528;5.076;2023-07-13T02:51:02;100912.84;;;19.30;44.17
60974;BME280;46846;51.528;5.076;2023-07-13T02:53:28;100918.22;;;19.30;44.37
60974;BME280;46846;51.528;5.076;2023-07-13T02:55:53;100913.06;;;19.26;44.27
60974;BME280;46846;51.528;5.076;2023-07-13T02:58:19;100913.16;;;19.25;44.34
60974;BME280;46846;51.528;5.076;2023-07-13T03:00:45;100914.16;;;19.24;44.35
60974;BME280;46846;51.528;5.076;2023-07-13T03:03:12;100917.91;;;19.21;44.42
60974;BME280;46846;51.528;5.076;2023-07-13T03:05:41;100922.56;;;19.19;44.29
60974;BME280;46846;51.528;5.076;2023-07-13T03:08:08;100916.41;;;19.17;44.40
60974;BME280;46846;51.528;5.076;2023-07-13T03:10:34;100920.19;;;19.15;44.41
60974;BME280;46846;51.528;5.076;2023-07-13T03:12:59;100923.97;;;19.12;44.54
60974;BME280;46846;51.528;5.076;2023-07-13T03:15:25;100923.97;;;19.12;44.55
60974;BME280;46846;51.528;5.076;2023-07-13T03:17:50;100923.22;;;19.10;44.60
60974;BME280;46846;51.528;5.076;2023-07-13T03:20:16;100923.31;;;19.08;44.59
60974;BME280;46846;51.528;5.076;2023-07-13T03:22:41;100916.19;;;19.07;44.63
60974;BME280;46846;51.528;5.076;2023-07-13T03:25:07;100923.41;;;19.07;44.63
60974;BME280;46846;51.528;5.076;2023-07-13T03:27:33;100923.53;;;19.05;44.56
60974;BME280;46846;51.528;5.076;2023-07-13T03:29:58;100916.50;;;19.03;44.75
60974;BME280;46846;51.528;5.076;2023-07-13T03:32:23;100923.63;;;19.04;44.86
60974;BME280;46846;51.528;5.076;2023-07-13T03:34:49;100926.50;;;19.00;44.79
60974;BME280;46846;51.528;5.076;2023-07-13T03:37:14;100931.03;;;19.00;44.73
60974;BME280;46846;51.528;5.076;2023-07-13T03:39:40;100940.19;;;18.97;44.79
60974;BME280;46846;51.528;5.076;2023-07-13T03:42:06;100941.16;;;18.96;44.85
60974;BME280;46846;51.528;5.076;2023-07-13T03:44:31;100934.16;;;18.94;44.77
60974;BME280;46846;51.528;5.076;2023-07-13T03:46:56;100939.63;;;18.92;44.98
60974;BME280;46846;51.528;5.076;2023-07-13T03:49:22;100932.53;;;18.91;45.01
60974;BME280;46846;51.528;5.076;2023-07-13T03:51:47;100941.59;;;18.90;45.19
60974;BME280;46846;51.528;5.076;2023-07-13T03:54:12;100941.69;;;18.89;44.84
60974;BME280;46846;51.528;5.076;2023-07-13T03:56:38;100942.75;;;18.86;44.97
60974;BME280;46846;51.528;5.076;2023-07-13T03:59:03;100948.13;;;18.86;44.98
60974;BME280;46846;51.528;5.076;2023-07-13T04:01:29;100951.72;;;18.86;45.32
60974;BME280;46846;51.528;5.076;2023-07-13T04:03:54;100951.94;;;18.83;45.33
60974;BME280;46846;51.528;5.076;2023-07-13T04:06:23;100952.22;;;18.79;45.27
60974;BME280;46846;51.528;5.076;2023-07-13T04:08:51;100957.81;;;18.76;44.98
60974;BME280;46846;51.528;5.076;2023-07-13T04:11:19;100964.41;;;18.71;45.22
60974;BME280;46846;51.528;5.076;2023-07-13T04:13:45;100956.09;;;18.75;45.51
60974;BME280;46846;51.528;5.076;2023-07-13T04:16:12;100965.91;;;18.76;45.28
60974;BME280;46846;51.528;5.076;2023-07-13T04:18:37;100966.00;;;18.74;45.19
60974;BME280;46846;51.528;5.076;2023-07-13T04:21:03;100971.63;;;18.71;45.19
60974;BME280;46846;51.528;5.076;2023-07-13T04:23:29;100984.13;;;18.72;45.34
60974;BME280;46846;51.528;5.076;2023-07-13T04:25:54;100978.06;;;18.68;45.37
60974;BME280;46846;51.528;5.076;2023-07-13T04:28:21;100974.41;;;18.69;45.38
60974;BME280;46846;51.528;5.076;2023-07-13T04:30:47;100976.25;;;18.69;45.50
60974;BME280;46846;51.528;5.076;2023-07-13T04:33:12;100975.69;;;18.64;45.56
60974;BME280;46846;51.528;5.076;2023-07-13T04:35:38;100988.84;;;18.68;45.56
60974;BME280;46846;51.528;5.076;2023-07-13T04:38:03;100982.81;;;18.65;45.52
60974;BME280;46846;51.528;5.076;2023-07-13T04:40:29;100988.94;;;18.67;45.94
60974;BME280;46846;51.528;5.076;2023-07-13T04:42:55;100989.06;;;18.65;45.67
60974;BME280;46846;51.528;5.076;2023-07-13T04:45:21;100991.75;;;18.65;45.72
60974;BME280;46846;51.528;5.076;2023-07-13T04:47:49;100992.75;;;18.64;45.85
60974;BME280;46846;51.528;5.076;2023-07-13T04:50:15;100983.88;;;18.62;45.97
60974;BME280;46846;51.528;5.076;2023-07-13T04:52:44;100993.81;;;18.62;45.64
60974;BME280;46846;51.528;5.076;2023-07-13T04:55:10;100997.75;;;18.56;45.58
60974;BME280;46846;51.528;5.076;2023-07-13T04:57:35;100997.00;;;18.54;45.64
60974;BME280;46846;51.528;5.076;2023-07-13T05:00:01;100995.16;;;18.54;45.95
60974;BME280;46846;51.528;5.076;2023-07-13T05:02:31;100994.69;;;18.48;45.48
60974;BME280;46846;51.528;5.076;2023-07-13T05:04:57;100998.25;;;18.48;45.87
60974;BME280;46846;51.528;5.076;2023-07-13T05:07:23;101002.59;;;18.51;45.90
60974;BME280;46846;51.528;5.076;2023-07-13T05:09:48;100997.38;;;18.48;45.73
60974;BME280;46846;51.528;5.076;2023-07-13T05:12:14;101003.75;;;18.47;45.88
60974;BME280;46846;51.528;5.076;2023-07-13T05:14:39;101007.41;;;18.45;46.04
60974;BME280;46846;51.528;5.076;2023-07-13T05:17:05;101004.72;;;18.45;46.12
60974;BME280;46846;51.528;5.076;2023-07-13T05:19:30;101006.44;;;18.47;46.18
60974;BME280;46846;51.528;5.076;2023-07-13T05:21:55;101002.22;;;18.42;45.98
60974;BME280;46846;51.528;5.076;2023-07-13T05:24:21;101013.09;;;18.41;46.26
60974;BME280;46846;51.528;5.076;2023-07-13T05:26:46;101014.63;;;18.45;47.47
60974;BME280;46846;51.528;5.076;2023-07-13T05:29:12;101009.44;;;18.42;46.19
60974;BME280;46846;51.528;5.076;2023-07-13T05:31:37;101012.53;;;18.36;46.50
60974;BME280;46846;51.528;5.076;2023-07-13T05:34:03;101020.88;;;18.45;46.60
60974;BME280;46846;51.528;5.076;2023-07-13T05:36:28;101016.84;;;18.38;46.22
60974;BME280;46846;51.528;5.076;2023-07-13T05:38:54;101024.09;;;18.38;46.66
60974;BME280;46846;51.528;5.076;2023-07-13T05:41:19;101018.50;;;18.41;46.77
60974;BME280;46846;51.528;5.076;2023-07-13T05:43:44;101021.09;;;18.42;46.46
60974;BME280;46846;51.528;5.076;2023-07-13T05:46:10;101019.25;;;18.43;46.48
60974;BME280;46846;51.528;5.076;2023-07-13T05:48:35;101022.69;;;18.45;46.48
60974;BME280;46846;51.528;5.076;2023-07-13T05:51:01;101025.22;;;18.48;47.01
60974;BME280;46846;51.528;5.076;2023-07-13T05:53:26;101021.09;;;18.42;46.95
60974;BME280;46846;51.528;5.076;2023-07-13T05:55:54;101029.19;;;18.42;46.97
60974;BME280;46846;51.528;5.076;2023-07-13T05:58:20;101034.94;;;18.36;47.14
60974;BME280;46846;51.528;5.076;2023-07-13T06:00:46;101037.66;;;18.36;46.79
60974;BME280;46846;51.528;5.076;2023-07-13T06:03:12;101043.88;;;18.37;46.74
60974;BME280;46846;51.528;5.076;2023-07-13T06:05:38;101037.13;;;18.44;47.48
60974;BME280;46846;51.528;5.076;2023-07-13T06:08:04;101041.75;;;18.42;47.79
60974;BME280;46846;51.528;5.076;2023-07-13T06:10:35;101046.47;;;18.38;47.15
60974;BME280;46846;51.528;5.076;2023-07-13T06:13:01;101051.59;;;18.28;46.89
60974;BME280;46846;51.528;5.076;2023-07-13T06:15:27;101051.28;;;18.33;46.99
60974;BME280;46846;51.528;5.076;2023-07-13T06:17:52;101060.72;;;18.40;48.54
60974;BME280;46846;51.528;5.076;2023-07-13T06:20:18;101059.66;;;18.43;48.54
60974;BME280;46846;51.528;5.076;2023-07-13T06:22:43;101058.59;;;18.45;49.04
60974;BME280;46846;51.528;5.076;2023-07-13T06:25:08;101064.00;;;18.45;49.77
60974;BME280;46846;51.528;5.076;2023-07-13T06:27:34;101059.78;;;18.41;48.10
60974;BME280;46846;51.528;5.076;2023-07-13T06:29:59;101058.44;;;18.34;48.22
60974;BME280;46846;51.528;5.076;2023-07-13T06:32:25;101067.47;;;18.33;47.96
60974;BME280;46846;51.528;5.076;2023-07-13T06:34:50;101064.75;;;18.33;47.61
60974;BME280;46846;51.528;5.076;2023-07-13T06:37:17;101069.09;;;18.36;47.69
60974;BME280;46846;51.528;5.076;2023-07-13T06:39:43;101068.25;;;18.35;48.22
60974;BME280;46846;51.528;5.076;2023-07-13T06:42:08;101065.94;;;18.29;47.73
60974;BME280;46846;51.528;5.076;2023-07-13T06:44:34;101071.13;;;18.32;48.05
60974;BME280;46846;51.528;5.076;2023-07-13T06:46:59;101073.50;;;18.37;47.78
60974;BME280;46846;51.528;5.076;2023-07-13T06:49:25;101070.72;;;18.38;47.94
60974;BME280;46846;51.528;5.076;2023-07-13T06:51:50;101073.81;;;18.32;47.56
60974;BME280;46846;51.528;5.076;2023-07-13T06:54:16;101073.63;;;18.35;48.24
60974;BME280;46846;51.528;5.076;2023-07-13T06:56:41;101075.94;;;18.41;47.80
60974;BME280;46846;51.528;5.076;2023-07-13T06:59:07;101076.88;;;18.40;47.90
60974;BME280;46846;51.528;5.076;2023-07-13T07:01:32;101079.19;;;18.47;48.28
60974;BME280;46846;51.528;5.076;2023-07-13T07:03:58;101084.78;;;18.43;47.67
60974;BME280;46846;51.528;5.076;2023-07-13T07:06:23;101085.34;;;18.49;47.74
60974;BME280;46846;51.528;5.076;2023-07-13T07:08:50;101086.78;;;18.54;49.30
60974;BME280;46846;51.528;5.076;2023-07-13T07:11:21;101087.34;;;18.45;47.61
60974;BME280;46846;51.528;5.076;2023-07-13T07:13:51;101078.22;;;18.48;49.63
60974;BME280;46846;51.528;5.076;2023-07-13T07:16:17;101080.38;;;18.42;48.31
60974;BME280;46846;51.528;5.076;2023-07-13T07:18:43;101086.91;;;18.38;48.19
60974;BME280;46846;51.528;5.076;2023-07-13T07:21:08;101085.75;;;18.42;48.60
60974;BME280;46846;51.528;5.076;2023-07-13T07:23:34;101091.91;;;18.44;49.42
60974;BME280;46846;51.528;5.076;2023-07-13T07:25:59;101094.38;;;18.48;49.40
60974;BME280;46846;51.528;5.076;2023-07-13T07:28:25;101094.09;;;18.52;48.97
60974;BME280;46846;51.528;5.076;2023-07-13T07:30:53;101089.88;;;18.48;48.21
60974;BME280;46846;51.528;5.076;2023-07-13T07:33:19;101087.84;;;18.52;49.42
60974;BME280;46846;51.528;5.076;2023-07-13T07:35:44;101084.09;;;18.54;48.84
60974;BME280;46846;51.528;5.076;2023-07-13T07:38:09;101086.41;;;18.61;48.88
60974;BME280;46846;51.528;5.076;2023-07-13T07:40:39;101086.88;;;18.53;49.84
60974;BME280;46846;51.528;5.076;2023-07-13T07:43:08;101100.72;;;18.61;51.18
60974;BME280;46846;51.528;5.076;2023-07-13T07:45:34;101101.47;;;18.63;50.58
60974;BME280;46846;51.528;5.076;2023-07-13T07:48:00;101099.97;;;18.59;49.64
60974;BME280;46846;51.528;5.076;2023-07-13T07:50:26;101103.63;;;18.58;49.64
60974;BME280;46846;51.528;5.076;2023-07-13T07:52:52;101108.72;;;18.63;49.22
60974;BME280;46846;51.528;5.076;2023-07-13T07:55:17;101105.81;;;18.66;50.46
60974;BME280;46846;51.528;5.076;2023-07-13T07:57:43;101099.88;;;18.61;49.89
60974;BME280;46846;51.528;5.076;2023-07-13T08:00:09;101103.78;;;18.69;50.18
60974;BME280;46846;51.528;5.076;2023-07-13T08:02:34;101095.81;;;18.68;49.82
60974;BME280;46846;51.528;5.076;2023-07-13T08:05:00;101102.72;;;18.72;49.54
60974;BME280;46846;51.528;5.076;2023-07-13T08:07:25;101103.47;;;18.74;49.84
60974;BME280;46846;51.528;5.076;2023-07-13T08:09:54;101095.00;;;18.80;50.17
60974;BME280;46846;51.528;5.076;2023-07-13T08:12:19;101104.50;;;18.86;50.55
60974;BME280;46846;51.528;5.076;2023-07-13T08:14:49;101101.31;;;18.94;49.97
60974;BME280;46846;51.528;5.076;2023-07-13T08:17:19;101105.47;;;18.85;49.40
60974;BME280;46846;51.528;5.076;2023-07-13T08:19:44;101107.03;;;18.89;49.77
60974;BME280;46846;51.528;5.076;2023-07-13T08:22:09;101110.69;;;19.03;50.97
60974;BME280;46846;51.528;5.076;2023-07-13T08:24:35;101112.56;;;19.00;50.14
60974;BME280;46846;51.528;5.076;2023-07-13T08:27:00;101100.44;;;19.08;50.91
60974;BME280;46846;51.528;5.076;2023-07-13T08:29:26;101100.03;;;19.14;50.73
60974;BME280;46846;51.528;5.076;2023-07-13T08:31:51;101110.81;;;19.14;49.56
60974;BME280;46846;51.528;5.076;2023-07-13T08:34:16;101096.16;;;19.18;49.54
60974;BME280;46846;51.528;5.076;2023-07-13T08:36:42;101105.00;;;19.20;50.19
60974;BME280;46846;51.528;5.076;2023-07-13T08:39:07;101105.69;;;19.24;50.10
60974;BME280;46846;51.528;5.076;2023-07-13T08:41:34;101098.25;;;19.27;49.73
60974;BME280;46846;51.528;5.076;2023-07-13T08:44:00;101104.94;;;19.35;50.36
60974;BME280;46846;51.528;5.076;2023-07-13T08:46:33;101109.47;;;19.34;49.62
60974;BME280;46846;51.528;5.076;2023-07-13T08:49:05;101104.53;;;19.41;49.76
60974;BME280;46846;51.528;5.076;2023-07-13T08:54:22;101105.28;;;19.43;50.51
60974;BME280;46846;51.528;5.076;2023-07-13T08:56:50;101100.56;;;19.47;50.22
60974;BME280;46846;51.528;5.076;2023-07-13T08:59:20;101097.63;;;19.50;50.41
60974;BME280;46846;51.528;5.076;2023-07-13T09:04:37;101097.03;;;19.59;50.15
60974;BME280;46846;51.528;5.076;2023-07-13T09:12:50;101097.03;;;19.72;49.52
60974;BME280;46846;51.528;5.076;2023-07-13T09:17:49;101091.31;;;19.77;49.79
60974;BME280;46846;51.528;5.076;2023-07-13T09:20:26;101090.91;;;19.83;49.41
60974;BME280;46846;51.528;5.076;2023-07-13T09:22:56;101089.91;;;19.84;50.34
60974;BME280;46846;51.528;5.076;2023-07-13T09:25:31;101079.44;;;19.92;49.65
60974;BME280;46846;51.528;5.076;2023-07-13T09:28:02;101094.25;;;20.00;49.31
60974;BME280;46846;51.528;5.076;2023-07-13T09:30:40;101091.25;;;20.04;49.56
60974;BME280;46846;51.528;5.076;2023-07-13T09:33:09;101085.63;;;20.07;49.65
60974;BME280;46846;51.528;5.076;2023-07-13T09:35:35;101094.25;;;20.13;49.86
60974;BME280;46846;51.528;5.076;2023-07-13T09:43:21;101094.47;;;20.22;49.63
60974;BME280;46846;51.528;5.076;2023-07-13T09:45:47;101094.91;;;20.29;49.27
60974;BME280;46846;51.528;5.076;2023-07-13T09:48:14;101092.72;;;20.34;49.16
60974;BME280;46846;51.528;5.076;2023-07-13T09:50:41;101096.72;;;20.42;49.13
60974;BME280;46846;51.528;5.076;2023-07-13T09:53:15;101090.13;;;20.46;48.79
60974;BME280;46846;51.528;5.076;2023-07-13T09:55:42;101102.31;;;20.52;49.02
60974;BME280;46846;51.528;5.076;2023-07-13T09:58:12;101106.53;;;20.56;48.88
60974;BME280;46846;51.528;5.076;2023-07-13T10:00:39;101111.94;;;20.56;48.75
60974;BME280;46846;51.528;5.076;2023-07-13T10:03:21;101119.72;;;20.60;48.85
60974;BME280;46846;51.528;5.076;2023-07-13T10:05:49;101126.63;;;20.65;49.37
60974;BME280;46846;51.528;5.076;2023-07-13T10:08:35;101121.00;;;20.68;48.95
60974;BME280;46846;51.528;5.076;2023-07-13T10:13:50;101130.38;;;20.75;49.00
60974;BME280;46846;51.528;5.076;2023-07-13T10:16:16;101122.03;;;20.78;49.52
60974;BME280;46846;51.528;5.076;2023-07-13T10:21:19;101134.38;;;20.82;48.96
60974;BME280;46846;51.528;5.076;2023-07-13T10:23:59;101128.56;;;20.88;49.14
60974;BME280;46846;51.528;5.076;2023-07-13T10:26:33;101125.50;;;20.93;49.28
60974;BME280;46846;51.528;5.076;2023-07-13T10:29:05;101125.16;;;20.98;49.99
60974;BME280;46846;51.528;5.076;2023-07-13T10:31:35;101122.31;;;20.99;50.04
60974;BME280;46846;51.528;5.076;2023-07-13T10:34:02;101119.50;;;21.01;49.23
60974;BME280;46846;51.528;5.076;2023-07-13T10:36:29;101117.53;;;21.03;49.39
60974;BME280;46846;51.528;5.076;2023-07-13T10:38:57;101119.34;;;21.15;49.70
60974;BME280;46846;51.528;5.076;2023-07-13T10:41:25;101116.41;;;21.19;49.17
60974;BME280;46846;51.528;5.076;2023-07-13T10:43:54;101124.19;;;21.23;49.46
60974;BME280;46846;51.528;5.076;2023-07-13T10:46:23;101129.69;;;21.22;48.92
60974;BME280;46846;51.528;5.076;2023-07-13T10:48:52;101132.94;;;21.27;49.27
60974;BME280;46846;51.528;5.076;2023-07-13T10:51:19;101128.25;;;21.29;49.04
60974;BME280;46846;51.528;5.076;2023-07-13T10:56:38;101122.59;;;21.32;48.70
60974;BME280;46846;51.528;5.076;2023-07-13T10:59:26;101130.16;;;21.40;48.61
60974;BME280;46846;51.528;5.076;2023-07-13T11:04:29;101124.28;;;21.46;48.27
60974;BME280;46846;51.528;5.076;2023-07-13T11:07:11;101125.75;;;21.50;48.48
60974;BME280;46846;51.528;5.076;2023-07-13T11:09:39;101151.28;;;21.59;47.96
60974;BME280;46846;51.528;5.076;2023-07-13T11:12:55;101134.91;;;21.61;48.23
60974;BME280;46846;51.528;5.076;2023-07-13T11:22:53;101132.03;;;21.75;47.76
60974;BME280;46846;51.528;5.076;2023-07-13T11:25:34;101143.59;;;21.77;47.76
60974;BME280;46846;51.528;5.076;2023-07-13T11:36:21;101144.38;;;21.91;47.37
60974;BME280;46846;51.528;5.076;2023-07-13T11:38:59;101148.94;;;21.90;47.57
60974;BME280;46846;51.528;5.076;2023-07-13T11:41:37;101146.94;;;21.92;47.36
60974;BME280;46846;51.528;5.076;2023-07-13T11:44:14;101148.81;;;21.92;47.37
60974;BME280;46846;51.528;5.076;2023-07-13T11:46:48;101149.91;;;21.89;47.34
60974;BME280;46846;51.528;5.076;2023-07-13T11:49:19;101146.22;;;21.90;47.61
60974;BME280;46846;51.528;5.076;2023-07-13T11:51:45;101149.19;;;21.98;47.17
60974;BME280;46846;51.528;5.076;2023-07-13T11:54:23;101151.16;;;21.96;47.28
60974;BME280;46846;51.528;5.076;2023-07-13T11:56:49;101140.84;;;22.02;45.75
60974;BME280;46846;51.528;5.076;2023-07-13T11:59:15;101140.31;;;22.08;46.83
60974;BME280;46846;51.528;5.076;2023-07-13T12:01:51;101144.53;;;22.12;46.73
60974;BME280;46846;51.528;5.076;2023-07-13T12:04:26;101136.91;;;22.17;46.58
60974;BME280;46846;51.528;5.076;2023-07-13T12:06:58;101139.84;;;22.14;46.55
60974;BME280;46846;51.528;5.076;2023-07-13T12:09:27;101144.53;;;22.12;46.55
60974;BME280;46846;51.528;5.076;2023-07-13T12:11:53;101144.06;;;22.18;46.44
60974;BME280;46846;51.528;5.076;2023-07-13T12:14:19;101143.06;;;22.19;46.29
60974;BME280;46846;51.528;5.076;2023-07-13T12:16:46;101152.91;;;22.20;46.24
60974;BME280;46846;51.528;5.076;2023-07-13T12:19:23;101152.69;;;22.23;46.24
60974;BME280;46846;51.528;5.076;2023-07-13T12:21:52;101150.72;;;22.25;46.43
60974;BME280;46846;51.528;5.076;2023-07-13T12:24:19;101149.97;;;22.35;45.97
60974;BME280;46846;51.528;5.076;2023-07-13T12:26:55;101154.78;;;22.31;46.15
60974;BME280;46846;51.528;5.076;2023-07-13T12:29:24;101155.66;;;22.43;42.65
60974;BME280;46846;51.528;5.076;2023-07-13T12:31:50;101157.84;;;22.38;46.23
60974;BME280;46846;51.528;5.076;2023-07-13T12:34:19;101160.81;;;22.35;45.71
60974;BME280;46846;51.528;5.076;2023-07-13T12:39:37;101151.09;;;22.44;45.40
60974;BME280;46846;51.528;5.076;2023-07-13T12:42:28;101158.34;;;22.43;45.56
60974;BME280;46846;51.528;5.076;2023-07-13T12:47:22;101154.41;;;22.36;45.57
60974;BME280;46846;51.528;5.076;2023-07-13T12:49:54;101169.69;;;22.37;45.16
60974;BME280;46846;51.528;5.076;2023-07-13T12:52:23;101161.19;;;22.42;45.10
60974;BME280;46846;51.528;5.076;2023-07-13T12:54:54;101179.56;;;22.49;45.60
60974;BME280;46846;51.528;5.076;2023-07-13T12:57:22;101183.03;;;22.51;45.35
60974;BME280;46846;51.528;5.076;2023-07-13T12:59:52;101191.94;;;22.53;45.29
60974;BME280;46846;51.528;5.076;2023-07-13T13:02:33;101200.06;;;22.53;45.37
60974;BME280;46846;51.528;5.076;2023-07-13T13:05:00;101193.66;;;22.55;45.37
60974;BME280;46846;51.528;5.076;2023-07-13T13:07:26;101188.84;;;22.58;45.33
60974;BME280;46846;51.528;5.076;2023-07-13T13:09:52;101188.72;;;22.60;45.08
60974;BME280;46846;51.528;5.076;2023-07-13T13:12:19;101193.16;;;22.61;45.29
60974;BME280;46846;51.528;5.076;2023-07-13T13:14:45;101194.00;;;22.61;45.10
60974;BME280;46846;51.528;5.076;2023-07-13T13:17:22;101204.03;;;22.61;45.25
60974;BME280;46846;51.528;5.076;2023-07-13T13:19:50;101204.88;;;22.61;45.29
60974;BME280;46846;51.528;5.076;2023-07-13T13:22:18;101212.00;;;22.62;44.92
60974;BME280;46846;51.528;5.076;2023-07-13T13:24:43;101209.19;;;22.64;45.22
60974;BME280;46846;51.528;5.076;2023-07-13T13:27:15;101204.63;;;22.64;45.06
60974;BME280;46846;51.528;5.076;2023-07-13T13:29:43;101201.31;;;22.61;45.22
60974;BME280;46846;51.528;5.076;2023-07-13T13:32:11;101195.88;;;22.61;45.33
60974;BME280;46846;51.528;5.076;2023-07-13T13:34:37;101202.03;;;22.63;45.33
60974;BME280;46846;51.528;5.076;2023-07-13T13:37:03;101203.88;;;22.62;45.16
60974;BME280;46846;51.528;5.076;2023-07-13T13:39:35;101204.00;;;22.72;44.98
60974;BME280;46846;51.528;5.076;2023-07-13T13:42:01;101196.13;;;22.69;44.90
60974;BME280;46846;51.528;5.076;2023-07-13T13:44:27;101205.72;;;22.73;44.94